Terminal Aerodrome Forecast
Issued by NWS

Home | Current Version | Previous Version | Text Only | Print | Product List | Glossary On
Versions: 1 2 3 4 5 6 7 8 9 10 11 12 13
000
FTUS44 KLIX 022300
TAFMSY
TAF
KMSY 022340Z 0300/0324 17008KT P6SM VCSH BKN035 BKN050 BKN250
     FM030200 00000KT P6SM BKN130
     FM031400 08004KT P6SM SCT035 BKN110
      TEMPO 0316/0320 15020G30KT 1SM +TSRA BKN035CB=

USA.gov is the U.S. government's official web portal to all federal, state and local government web resources and services.